createdAt,value
2022-12-13T00:02:20.286Z,-3.65
2022-12-13T00:04:50.032Z,-3.76
2022-12-13T00:07:19.765Z,-3.76
2022-12-13T00:09:49.515Z,-3.64
2022-12-13T00:12:19.267Z,-3.58
2022-12-13T00:14:49.025Z,-3.53
2022-12-13T00:17:18.750Z,-3.57
2022-12-13T00:19:49.214Z,-3.72
2022-12-13T00:22:19.218Z,-3.74
2022-12-13T00:24:48.971Z,-3.79
2022-12-13T00:27:18.712Z,-3.81
2022-12-13T00:29:49.415Z,-3.85
2022-12-13T00:32:19.081Z,-3.84
2022-12-13T00:34:48.842Z,-3.82
2022-12-13T00:37:18.586Z,-3.67
2022-12-13T00:39:48.630Z,-3.93
2022-12-13T00:42:18.130Z,-3.94
2022-12-13T00:44:47.873Z,-3.94
2022-12-13T00:47:18.913Z,-3.98
2022-12-13T00:49:48.653Z,-3.95
2022-12-13T00:52:18.090Z,-4.06
2022-12-13T00:54:47.839Z,-4.03
2022-12-13T00:57:17.573Z,-4.03
2022-12-13T00:59:47.995Z,-4.03
2022-12-13T01:02:17.514Z,-4.04
2022-12-13T01:04:49.029Z,-4.00
2022-12-13T01:07:18.767Z,-4.00
2022-12-13T01:09:48.506Z,-4.08
2022-12-13T01:12:18.321Z,-4.10
2022-12-13T01:14:53.062Z,-4.10
2022-12-13T01:17:19.575Z,-4.04
2022-12-13T01:19:50.578Z,-4.09
2022-12-13T01:22:20.402Z,-4.08
2022-12-13T01:24:50.199Z,-4.14
2022-12-13T01:27:19.938Z,-4.17
2022-12-13T01:29:49.672Z,-4.10
2022-12-13T01:32:19.413Z,-4.03
2022-12-13T01:34:49.462Z,-4.03
2022-12-13T01:37:20.370Z,-4.01
2022-12-13T01:39:51.812Z,-4.14
2022-12-13T01:42:23.205Z,-4.20
2022-12-13T01:45:02.498Z,-4.14
2022-12-13T01:47:35.370Z,-4.30
2022-12-13T01:50:09.723Z,-4.27
2022-12-13T01:52:40.596Z,-4.20
2022-12-13T01:55:12.846Z,-4.31
2022-12-13T01:57:45.889Z,-4.19
2022-12-13T02:00:16.769Z,-4.23
2022-12-13T02:02:48.452Z,-4.23
2022-12-13T02:05:29.672Z,-4.29
2022-12-13T02:08:01.058Z,-4.33
2022-12-13T02:10:31.956Z,-4.32
2022-12-13T02:13:01.704Z,-4.31
2022-12-13T02:15:36.931Z,-4.26
2022-12-13T02:18:23.132Z,-4.16
2022-12-13T02:21:15.478Z,-4.36
2022-12-13T02:24:08.766Z,-4.36
2022-12-13T02:26:43.158Z,-4.36
2022-12-13T02:29:30.540Z,-4.37
2022-12-13T02:32:07.537Z,-4.38
2022-12-13T02:34:52.125Z,-4.41
2022-12-13T02:37:25.062Z,-4.42
2022-12-13T02:40:03.752Z,-4.32
2022-12-13T02:42:36.556Z,-4.36
2022-12-13T02:45:20.673Z,-4.34
2022-12-13T02:47:50.098Z,-4.25
2022-12-13T02:50:22.287Z,-4.35
2022-12-13T02:52:53.165Z,-4.46
2022-12-13T02:55:27.915Z,-4.34
2022-12-13T02:57:54.505Z,-4.23
2022-12-13T03:00:32.641Z,-4.28
2022-12-13T03:03:23.202Z,-4.41
2022-12-13T03:06:16.580Z,-4.39
2022-12-13T03:08:52.449Z,-4.40
2022-12-13T03:11:24.854Z,-4.42
2022-12-13T03:14:00.511Z,-4.43
2022-12-13T03:16:36.633Z,-4.45
2022-12-13T03:19:09.233Z,-4.43
2022-12-13T03:21:47.339Z,-4.41
2022-12-13T03:24:13.394Z,-4.43
2022-12-13T03:26:43.211Z,-4.52
2022-12-13T03:29:13.125Z,-4.40
2022-12-13T03:31:45.081Z,-4.41
2022-12-13T03:34:14.846Z,-4.48
2022-12-13T03:36:46.648Z,-4.59
2022-12-13T03:39:16.692Z,-4.62
2022-12-13T03:41:46.608Z,-4.55
2022-12-13T03:44:16.366Z,-4.65
2022-12-13T03:46:46.723Z,-4.65
2022-12-13T03:49:17.496Z,-4.54
2022-12-13T03:51:47.796Z,-4.60
2022-12-13T03:54:19.109Z,-4.64
2022-12-13T03:56:48.840Z,-4.58
2022-12-13T03:59:18.702Z,-4.59
2022-12-13T04:01:48.581Z,-4.55
2022-12-13T04:04:18.138Z,-4.58
2022-12-13T04:06:47.889Z,-4.55
2022-12-13T04:09:17.627Z,-4.52
2022-12-13T04:12:05.190Z,-4.70
2022-12-13T04:14:35.797Z,-4.67
2022-12-13T04:17:05.537Z,-4.73
2022-12-13T04:19:35.308Z,-4.82
2022-12-13T04:22:06.614Z,-4.68
2022-12-13T04:24:37.615Z,-4.72
2022-12-13T04:27:07.658Z,-4.75
2022-12-13T04:29:37.145Z,-4.64
2022-12-13T04:32:25.969Z,-4.76
2022-12-13T04:34:39.901Z,-4.93
2022-12-13T04:37:10.704Z,-4.93
2022-12-13T04:39:40.453Z,-4.86
2022-12-13T04:42:12.026Z,-4.78
2022-12-13T04:44:46.029Z,-4.80
2022-12-13T04:47:13.212Z,-4.71
2022-12-13T04:49:43.041Z,-4.82
2022-12-13T04:52:12.839Z,-4.94
2022-12-13T04:54:44.569Z,-4.90
2022-12-13T04:57:14.769Z,-4.94
2022-12-13T04:59:46.137Z,-4.87
2022-12-13T05:02:23.364Z,-4.90
2022-12-13T05:04:47.499Z,-4.89
2022-12-13T05:07:18.952Z,-4.77
2022-12-13T05:09:48.688Z,-4.94
2022-12-13T05:12:22.513Z,-4.96
2022-12-13T05:14:49.873Z,-4.99
2022-12-13T05:17:19.429Z,-4.98
2022-12-13T05:19:49.172Z,-4.94
2022-12-13T05:22:20.840Z,-4.90
2022-12-13T05:24:50.946Z,-4.92
2022-12-13T05:27:24.007Z,-4.94
2022-12-13T05:29:57.669Z,-4.97
2022-12-13T05:32:23.459Z,-5.01
2022-12-13T05:34:53.160Z,-5.00
2022-12-13T05:37:22.908Z,-4.96
2022-12-13T05:39:52.640Z,-4.95
2022-12-13T05:42:22.220Z,-4.83
2022-12-13T05:44:54.168Z,-5.03
2022-12-13T05:47:23.936Z,-4.97
2022-12-13T05:49:53.909Z,-5.01
2022-12-13T05:52:30.364Z,-5.01
2022-12-13T05:55:00.996Z,-5.01
2022-12-13T05:57:30.585Z,-5.01
2022-12-13T06:00:00.644Z,-4.83
2022-12-13T06:02:30.557Z,-4.83
2022-12-13T06:05:00.400Z,-4.68
2022-12-13T06:07:30.145Z,-4.86
2022-12-13T06:10:10.644Z,-4.89
2022-12-13T06:12:32.729Z,-4.81
2022-12-13T06:15:02.982Z,-4.82
2022-12-13T06:17:36.931Z,-4.69
2022-12-13T06:20:23.372Z,-4.74
2022-12-13T06:22:40.143Z,-4.83
2022-12-13T06:25:31.170Z,-4.69
2022-12-13T06:27:41.758Z,-4.85
2022-12-13T06:30:13.375Z,-4.76
2022-12-13T06:32:44.095Z,-4.76
2022-12-13T06:35:29.038Z,-4.78
2022-12-13T06:37:45.159Z,-4.75
2022-12-13T06:40:17.643Z,-4.73
2022-12-13T06:42:46.428Z,-4.66
2022-12-13T06:45:15.926Z,-4.66
2022-12-13T06:47:46.023Z,-4.70
2022-12-13T06:50:15.784Z,-4.73
2022-12-13T06:52:47.508Z,-4.88
2022-12-13T06:55:23.509Z,-4.88
2022-12-13T06:57:49.215Z,-4.85
2022-12-13T07:00:22.515Z,-4.68
2022-12-13T07:02:55.681Z,-4.88
2022-12-13T07:05:27.239Z,-4.84
2022-12-13T07:07:57.039Z,-4.75
2022-12-13T07:10:26.503Z,-5.09
2022-12-13T07:12:56.553Z,-5.01
2022-12-13T07:15:26.482Z,-4.85
2022-12-13T07:17:56.277Z,-4.94
2022-12-13T07:20:25.721Z,-4.88
2022-12-13T07:22:58.821Z,-4.84
2022-12-13T07:25:29.469Z,-4.79
2022-12-13T07:28:02.866Z,-4.49
2022-12-13T07:30:40.653Z,-4.31
2022-12-13T07:33:07.900Z,-4.20
2022-12-13T07:35:38.391Z,-4.25
2022-12-13T07:38:11.373Z,-4.03
2022-12-13T07:40:42.132Z,-3.97
2022-12-13T07:43:12.026Z,-4.03
2022-12-13T07:45:41.774Z,-4.03
2022-12-13T07:48:11.594Z,-4.18
2022-12-13T07:50:41.415Z,-4.05
2022-12-13T07:53:11.534Z,-4.00
2022-12-13T07:55:41.279Z,-3.80
2022-12-13T07:58:14.007Z,-3.82
2022-12-13T08:00:46.852Z,-3.80
2022-12-13T08:03:24.404Z,-3.83
2022-12-13T08:05:49.305Z,-3.77
2022-12-13T08:08:20.754Z,-3.65
2022-12-13T08:10:50.493Z,-3.47
2022-12-13T08:13:20.933Z,-3.44
2022-12-13T08:15:51.286Z,-3.37
2022-12-13T08:18:20.987Z,-3.39
2022-12-13T08:20:51.024Z,-3.15
2022-12-13T08:23:21.033Z,-3.15
2022-12-13T08:25:55.109Z,-3.28
2022-12-13T08:28:26.062Z,-3.12
2022-12-13T08:30:55.965Z,-2.97
2022-12-13T08:33:25.698Z,-2.94
2022-12-13T08:35:55.437Z,-3.01
2022-12-13T08:38:25.529Z,-2.99
2022-12-13T08:40:56.769Z,-3.06
2022-12-13T08:43:26.578Z,-2.77
2022-12-13T08:46:01.242Z,-3.00
2022-12-13T08:48:28.289Z,-2.59
2022-12-13T08:51:03.566Z,-2.46
2022-12-13T08:53:40.822Z,-2.49
2022-12-13T08:56:10.665Z,-2.42
2022-12-13T08:58:41.065Z,-2.29
2022-12-13T09:01:12.359Z,-2.17
2022-12-13T09:03:42.153Z,-2.20
2022-12-13T09:06:14.788Z,-2.23
2022-12-13T09:08:51.753Z,-2.00
2022-12-13T09:11:20.790Z,-1.96
2022-12-13T09:13:48.777Z,-1.91
2022-12-13T09:16:24.295Z,-1.80
2022-12-13T09:18:56.202Z,-1.69
2022-12-13T09:21:30.942Z,-1.79
2022-12-13T09:24:01.762Z,-1.77
2022-12-13T09:26:37.717Z,-1.74
2022-12-13T09:29:10.533Z,-1.68
2022-12-13T09:31:34.710Z,-1.61
2022-12-13T09:34:06.399Z,-1.48
2022-12-13T09:36:36.628Z,-1.63
2022-12-13T09:39:06.827Z,-1.49
2022-12-13T09:41:40.728Z,-1.42
2022-12-13T09:44:32.968Z,-1.60
2022-12-13T09:47:03.970Z,-1.40
2022-12-13T09:49:38.590Z,-1.49
2022-12-13T09:52:21.194Z,-1.58
2022-12-13T09:54:49.221Z,-1.51
2022-12-13T09:57:32.401Z,-1.66
2022-12-13T09:59:58.648Z,-1.66
2022-12-13T10:02:31.689Z,-1.63
2022-12-13T10:05:34.287Z,-1.80
2022-12-13T10:08:02.274Z,-1.82
2022-12-13T10:10:31.949Z,-1.54
2022-12-13T10:13:16.195Z,-1.58
2022-12-13T10:15:49.064Z,-1.58
2022-12-13T10:18:21.870Z,-1.49
2022-12-13T10:20:51.964Z,-1.39
2022-12-13T10:24:06.955Z,-1.45
2022-12-13T10:26:03.331Z,-1.56
2022-12-13T10:28:33.000Z,-1.49
2022-12-13T10:31:03.425Z,-1.49
2022-12-13T10:33:35.728Z,-1.32
2022-12-13T10:36:11.090Z,-0.98
2022-12-13T10:38:43.352Z,-1.05
2022-12-13T10:41:38.551Z,-0.87
2022-12-13T10:44:15.373Z,-0.91
2022-12-13T10:46:50.868Z,-0.73
2022-12-13T10:49:23.875Z,-0.75
2022-12-13T10:51:54.730Z,-0.42
2022-12-13T10:54:38.347Z,-0.66
2022-12-13T10:57:04.471Z,-0.43
2022-12-13T10:59:40.121Z,-0.45
2022-12-13T11:02:36.263Z,-0.58
2022-12-13T11:05:28.260Z,-0.44
2022-12-13T11:08:01.118Z,-0.33
2022-12-13T11:10:31.184Z,-0.23
2022-12-13T11:13:06.288Z,-0.34
2022-12-13T11:15:39.100Z,-0.14
2022-12-13T11:18:14.064Z,-0.06
2022-12-13T11:20:55.980Z,0.20
2022-12-13T11:23:34.286Z,0.27
2022-12-13T11:26:12.102Z,0.27
2022-12-13T11:28:47.819Z,0.49
2022-12-13T11:31:36.962Z,0.57
2022-12-13T11:34:22.717Z,0.43
2022-12-13T11:37:04.305Z,0.78
2022-12-13T11:39:39.888Z,0.33
2022-12-13T11:42:19.853Z,0.33
2022-12-13T11:44:58.481Z,0.06
2022-12-13T11:47:34.079Z,0.67
2022-12-13T11:50:08.329Z,0.84
2022-12-13T11:52:44.584Z,0.85
2022-12-13T11:55:22.654Z,0.63
2022-12-13T11:58:04.942Z,0.76
2022-12-13T12:00:49.284Z,0.66
2022-12-13T12:03:24.702Z,0.22
2022-12-13T12:06:11.960Z,0.19
2022-12-13T12:08:47.947Z,0.09
2022-12-13T12:11:38.891Z,0.37
2022-12-13T12:14:14.087Z,0.19
2022-12-13T12:16:56.225Z,0.18
2022-12-13T12:19:33.007Z,0.08
2022-12-13T12:22:17.231Z,0.18
2022-12-13T12:25:05.060Z,0.28
2022-12-13T12:27:37.831Z,0.10
2022-12-13T12:30:13.594Z,0.14
2022-12-13T12:32:45.513Z,0.52
2022-12-13T12:35:23.931Z,0.83
2022-12-13T12:38:05.609Z,1.06
2022-12-13T12:43:38.218Z,0.98
2022-12-13T12:46:38.449Z,1.02
2022-12-13T12:49:12.396Z,0.93
2022-12-13T12:51:57.576Z,1.06
2022-12-13T12:54:35.398Z,0.84
2022-12-13T12:57:19.699Z,1.11
2022-12-13T12:59:56.777Z,1.24
2022-12-13T13:02:29.053Z,1.52
2022-12-13T13:05:01.571Z,1.55
2022-12-13T13:07:40.061Z,1.34
2022-12-13T13:10:26.092Z,0.70
2022-12-13T13:12:43.318Z,0.49
2022-12-13T13:15:35.666Z,0.49
2022-12-13T13:18:28.033Z,0.60
2022-12-13T13:21:26.490Z,0.50
2022-12-13T13:24:11.268Z,0.30
2022-12-13T13:26:43.499Z,0.59
2022-12-13T13:29:28.737Z,0.76
2022-12-13T13:32:28.520Z,0.74
2022-12-13T13:34:48.184Z,0.51
2022-12-13T13:37:24.653Z,0.34
2022-12-13T13:40:00.066Z,0.51
2022-12-13T13:42:30.658Z,0.16
2022-12-13T13:45:23.558Z,0.15
2022-12-13T13:48:23.729Z,0.42
2022-12-13T13:50:57.040Z,0.45
2022-12-13T13:53:32.521Z,0.35
2022-12-13T13:56:05.009Z,0.15
2022-12-13T13:58:54.076Z,-0.02
2022-12-13T14:01:45.949Z,-0.02
2022-12-13T14:04:38.263Z,0.15
2022-12-13T14:07:18.868Z,0.10
2022-12-13T14:10:08.184Z,0.06
2022-12-13T14:13:06.249Z,0.14
2022-12-13T14:16:00.416Z,0.12
2022-12-13T14:18:50.975Z,-0.09
2022-12-13T14:21:41.522Z,0.17
2022-12-13T14:24:23.163Z,0.20
2022-12-13T14:27:01.893Z,0.24
2022-12-13T14:29:37.606Z,0.38
2022-12-13T14:35:26.259Z,0.18
2022-12-13T14:37:39.736Z,0.23
2022-12-13T14:40:32.633Z,0.15
2022-12-13T14:43:02.530Z,0.15
2022-12-13T14:45:36.411Z,0.27
2022-12-13T14:48:28.682Z,0.01
2022-12-13T14:50:50.603Z,0.12
2022-12-13T14:53:26.752Z,0.10
2022-12-13T14:56:08.685Z,0.03
2022-12-13T14:58:39.486Z,0.02
2022-12-13T15:01:29.419Z,-0.24
2022-12-13T15:04:22.628Z,-0.12
2022-12-13T15:07:04.417Z,-0.39
2022-12-13T15:09:40.150Z,-0.22
2022-12-13T15:12:15.318Z,-0.29
2022-12-13T15:14:46.918Z,-0.19
2022-12-13T15:17:36.598Z,-0.45
2022-12-13T15:20:30.859Z,-0.38
2022-12-13T15:23:08.325Z,-0.44
2022-12-13T15:25:39.618Z,-0.31
2022-12-13T15:28:18.222Z,-0.53
2022-12-13T15:30:45.165Z,-0.53
2022-12-13T15:33:21.065Z,-0.55
2022-12-13T15:35:53.402Z,-0.60
2022-12-13T15:38:28.327Z,-0.64
2022-12-13T15:40:54.957Z,-0.77
2022-12-13T15:43:28.071Z,-0.54
2022-12-13T15:45:58.084Z,-0.77
2022-12-13T15:48:33.835Z,-0.77
2022-12-13T15:51:28.727Z,-0.75
2022-12-13T15:54:09.354Z,-0.74
2022-12-13T15:56:44.108Z,-0.73
2022-12-13T15:59:25.534Z,-0.79
2022-12-13T16:01:58.423Z,-0.97
2022-12-13T16:04:30.017Z,-0.87
2022-12-13T16:07:01.649Z,-0.73
2022-12-13T16:09:34.457Z,-0.92
2022-12-13T16:12:07.869Z,-0.89
2022-12-13T16:14:40.926Z,-0.98
2022-12-13T16:17:24.902Z,-0.82
2022-12-13T16:19:58.335Z,-0.89
2022-12-13T16:22:27.849Z,-0.89
2022-12-13T16:24:57.761Z,-0.80
2022-12-13T16:27:27.501Z,-0.67
2022-12-13T16:29:57.538Z,-0.73
2022-12-13T16:32:27.235Z,-0.86
2022-12-13T16:34:56.981Z,-0.91
2022-12-13T16:37:27.620Z,-0.87
2022-12-13T16:39:57.137Z,-0.83
2022-12-13T16:42:27.324Z,-0.88
2022-12-13T16:45:32.465Z,-0.83
2022-12-13T16:47:41.790Z,-1.10
2022-12-13T16:50:04.323Z,-1.01
2022-12-13T16:52:34.069Z,-1.01
2022-12-13T16:55:03.820Z,-1.02
2022-12-13T16:57:33.612Z,-1.02
2022-12-13T17:00:03.984Z,-1.10
2022-12-13T17:02:33.793Z,-1.07
2022-12-13T17:05:04.014Z,-0.97
2022-12-13T17:07:35.332Z,-1.18
2022-12-13T17:10:06.869Z,-1.21
2022-12-13T17:12:36.688Z,-0.98
2022-12-13T17:15:09.088Z,-1.10
2022-12-13T17:17:40.541Z,-1.11
2022-12-13T17:20:18.081Z,-1.19
2022-12-13T17:22:48.039Z,-0.90
2022-12-13T17:25:17.889Z,-1.08
2022-12-13T17:27:47.644Z,-1.01
2022-12-13T17:30:19.014Z,-1.09
2022-12-13T17:32:48.835Z,-1.04
2022-12-13T17:35:19.095Z,-1.05
2022-12-13T17:37:48.911Z,-1.24
2022-12-13T17:40:18.885Z,-1.12
2022-12-13T17:42:52.502Z,-1.21
2022-12-13T17:45:23.033Z,-1.35
2022-12-13T17:47:52.778Z,-1.35
2022-12-13T17:50:22.277Z,-1.16
2022-12-13T17:52:52.012Z,-1.14
2022-12-13T17:55:21.773Z,-1.01
2022-12-13T17:57:51.818Z,-0.95
2022-12-13T18:00:23.421Z,-1.19
2022-12-13T18:02:55.433Z,-1.24
2022-12-13T18:05:27.577Z,-1.12
2022-12-13T18:07:57.616Z,-1.00
2022-12-13T18:10:29.977Z,-0.95
2022-12-13T18:12:58.941Z,-1.03
2022-12-13T18:15:28.784Z,-0.97
2022-12-13T18:18:11.329Z,-0.97
2022-12-13T18:20:30.275Z,-0.84
2022-12-13T18:23:00.019Z,-0.91
2022-12-13T18:25:30.733Z,-0.93
2022-12-13T18:28:01.304Z,-0.98
2022-12-13T18:30:32.630Z,-0.81
2022-12-13T18:33:02.677Z,-0.85
2022-12-13T18:35:32.610Z,-0.81
2022-12-13T18:38:02.332Z,-1.20
2022-12-13T18:40:32.451Z,-1.12
2022-12-13T18:43:02.261Z,-0.97
2022-12-13T18:45:32.068Z,-0.83
2022-12-13T18:48:01.882Z,-0.77
2022-12-13T18:50:31.632Z,-0.88
2022-12-13T18:53:01.139Z,-0.88
2022-12-13T18:55:31.374Z,-0.90
2022-12-13T18:58:01.109Z,-0.90
2022-12-13T19:00:30.884Z,-0.87
2022-12-13T19:03:01.344Z,-0.96
2022-12-13T19:05:31.104Z,-1.05
2022-12-13T19:08:00.844Z,-0.98
2022-12-13T19:10:30.630Z,-1.01
2022-12-13T19:13:00.888Z,-1.05
2022-12-13T19:15:30.698Z,-1.17
2022-12-13T19:18:00.469Z,-1.12
2022-12-13T19:20:31.022Z,-0.89
2022-12-13T19:23:00.756Z,-0.93
2022-12-13T19:25:30.500Z,-0.98
2022-12-13T19:28:00.274Z,-1.16
2022-12-13T19:30:29.791Z,-1.33
2022-12-13T19:32:59.837Z,-1.16
2022-12-13T19:35:29.885Z,-1.16
2022-12-13T19:38:00.103Z,-1.04
2022-12-13T19:40:29.929Z,-1.06
2022-12-13T19:42:59.663Z,-1.02
2022-12-13T19:45:29.411Z,-1.05
2022-12-13T19:47:59.465Z,-0.87
2022-12-13T19:50:30.249Z,-1.01
2022-12-13T19:53:00.073Z,-1.16
2022-12-13T19:55:29.813Z,-0.95
2022-12-13T19:58:00.705Z,-1.17
2022-12-13T20:00:30.544Z,-0.98
2022-12-13T20:03:00.314Z,-1.12
2022-12-13T20:05:30.061Z,-0.98
2022-12-13T20:08:00.359Z,-0.88
2022-12-13T20:10:30.132Z,-0.97
2022-12-13T20:13:00.235Z,-1.07
2022-12-13T20:15:30.648Z,-0.87
2022-12-13T20:18:00.936Z,-0.85
2022-12-13T20:20:47.039Z,-1.15
2022-12-13T20:23:02.428Z,-1.06
2022-12-13T20:25:32.178Z,-0.90
2022-12-13T20:28:01.926Z,-0.94
2022-12-13T20:30:32.850Z,-1.06
2022-12-13T20:33:02.691Z,-1.02
2022-12-13T20:35:32.428Z,-1.42
2022-12-13T20:38:03.342Z,-1.09
2022-12-13T20:40:33.655Z,-1.10
2022-12-13T20:43:03.396Z,-1.05
2022-12-13T20:45:33.772Z,-1.18
2022-12-13T20:48:03.530Z,-1.04
2022-12-13T20:50:32.963Z,-1.33
2022-12-13T20:53:03.012Z,-1.32
2022-12-13T20:55:35.345Z,-1.12
2022-12-13T20:58:06.368Z,-1.17
2022-12-13T21:00:36.200Z,-1.24
2022-12-13T21:03:06.007Z,-1.20
2022-12-13T21:05:35.743Z,-1.32
2022-12-13T21:08:24.614Z,-1.18
2022-12-13T21:11:04.929Z,-1.42
2022-12-13T21:13:29.718Z,-1.36
2022-12-13T21:16:02.491Z,-1.21
2022-12-13T21:18:32.294Z,-1.16
2022-12-13T21:21:02.111Z,-1.17
2022-12-13T21:23:31.915Z,-1.29
2022-12-13T21:26:01.681Z,-1.07
2022-12-13T21:28:32.005Z,-1.07
2022-12-13T21:31:04.556Z,-1.22
2022-12-13T21:33:35.629Z,-1.20
2022-12-13T21:36:16.676Z,-1.22
2022-12-13T21:38:46.425Z,-1.12
2022-12-13T21:41:16.323Z,-1.21
2022-12-13T21:43:48.267Z,-1.10
2022-12-13T21:46:19.859Z,-1.01
2022-12-13T21:48:50.928Z,-0.99
2022-12-13T21:51:23.512Z,-1.18
2022-12-13T21:53:54.699Z,-1.01
2022-12-13T21:56:44.687Z,-1.04
2022-12-13T21:59:20.669Z,-1.12
2022-12-13T22:02:12.774Z,-1.13
2022-12-13T22:04:48.485Z,-1.11
2022-12-13T22:07:20.503Z,-0.99
2022-12-13T22:09:51.507Z,-1.18
2022-12-13T22:12:29.922Z,-1.05
2022-12-13T22:14:59.725Z,-1.01
2022-12-13T22:17:35.192Z,-1.02
2022-12-13T22:20:02.332Z,-0.99
2022-12-13T22:22:33.478Z,-1.10
2022-12-13T22:25:04.050Z,-0.99
2022-12-13T22:27:33.811Z,-0.92
2022-12-13T22:30:03.561Z,-0.92
2022-12-13T22:32:33.876Z,-1.02
2022-12-13T22:35:04.725Z,-1.09
2022-12-13T22:37:34.794Z,-1.12
2022-12-13T22:40:07.841Z,-1.28
2022-12-13T22:42:37.637Z,-1.24
2022-12-13T22:45:08.776Z,-1.35
2022-12-13T22:47:38.519Z,-1.35
2022-12-13T22:50:11.600Z,-1.12
2022-12-13T22:52:41.321Z,-1.25
2022-12-13T22:55:10.979Z,-1.35
2022-12-13T22:57:40.715Z,-1.18
2022-12-13T23:00:13.013Z,-1.21
2022-12-13T23:02:42.817Z,-1.33
2022-12-13T23:05:12.580Z,-1.35
2022-12-13T23:07:42.344Z,-1.27
2022-12-13T23:10:15.108Z,-1.17
2022-12-13T23:13:03.243Z,-1.28
2022-12-13T23:15:34.484Z,-1.18
2022-12-13T23:18:04.310Z,-1.19
2022-12-13T23:20:35.240Z,-1.32
2022-12-13T23:23:05.077Z,-1.25
2022-12-13T23:25:34.822Z,-1.26
2022-12-13T23:28:04.851Z,-1.06
2022-12-13T23:30:34.383Z,-1.16
2022-12-13T23:33:04.193Z,-1.13
2022-12-13T23:35:34.008Z,-1.13
2022-12-13T23:38:03.752Z,-1.21
2022-12-13T23:40:33.513Z,-1.18
2022-12-13T23:43:03.000Z,-1.18
2022-12-13T23:45:32.749Z,-1.30
2022-12-13T23:48:02.481Z,-0.99
2022-12-13T23:50:31.935Z,-0.99
2022-12-13T23:53:01.658Z,-0.84
2022-12-13T23:55:31.394Z,-1.04
2022-12-13T23:58:01.153Z,-0.94
